createdAt,value
2019-04-26T00:00:44.788Z,23.20
2019-04-26T00:03:44.138Z,23.20
2019-04-26T00:06:30.973Z,23.20
2019-04-26T00:09:32.244Z,23.20
2019-04-26T00:12:46.812Z,23.10
2019-04-26T00:15:45.727Z,23.20
2019-04-26T00:18:32.320Z,23.10
2019-04-26T00:21:18.687Z,23.10
2019-04-26T00:24:05.275Z,23.10
2019-04-26T00:26:51.983Z,23.10
2019-04-26T00:29:38.439Z,23.10
2019-04-26T00:32:24.687Z,23.10
2019-04-26T00:35:11.456Z,23.10
2019-04-26T00:37:58.850Z,23.10
2019-04-26T00:40:45.787Z,23.00
2019-04-26T00:43:32.627Z,23.00
2019-04-26T00:46:23.029Z,23.00
2019-04-26T00:49:09.895Z,23.00
2019-04-26T00:51:56.716Z,23.00
2019-04-26T00:54:43.544Z,23.00
2019-04-26T00:57:31.915Z,23.10
2019-04-26T01:00:19.523Z,23.10
2019-04-26T01:03:06.695Z,23.10
2019-04-26T01:06:00.175Z,23.10
2019-04-26T01:08:42.136Z,23.10
2019-04-26T01:11:28.023Z,23.10
2019-04-26T01:14:15.489Z,23.10
2019-04-26T01:17:02.751Z,23.10
2019-04-26T01:19:52.094Z,23.10
2019-04-26T01:22:42.448Z,23.00
2019-04-26T01:25:42.063Z,23.00
2019-04-26T01:28:36.015Z,23.00
2019-04-26T01:31:23.999Z,23.00
2019-04-26T01:34:10.372Z,23.00
2019-04-26T01:36:58.016Z,23.00
2019-04-26T01:39:50.213Z,23.00
2019-04-26T01:42:54.943Z,23.00
2019-04-26T01:45:48.898Z,23.00
2019-04-26T01:48:49.906Z,23.00
2019-04-26T01:52:01.548Z,23.00
2019-04-26T01:54:47.692Z,23.00
2019-04-26T01:57:34.680Z,23.00
2019-04-26T02:00:36.915Z,23.00
2019-04-26T02:03:25.668Z,23.00
2019-04-26T02:06:24.809Z,23.00
2019-04-26T02:09:00.555Z,23.00
2019-04-26T02:11:47.047Z,23.00
2019-04-26T02:14:33.296Z,23.00
2019-04-26T02:17:20.853Z,23.00
2019-04-26T02:20:07.727Z,23.00
2019-04-26T02:23:04.711Z,23.00
2019-04-26T02:25:50.980Z,23.00
2019-04-26T02:28:37.959Z,23.00
2019-04-26T02:31:25.286Z,23.00
2019-04-26T02:34:13.850Z,23.00
2019-04-26T02:37:03.103Z,23.00
2019-04-26T02:39:50.846Z,22.90
2019-04-26T02:42:40.110Z,22.90
2019-04-26T02:46:19.733Z,23.00
2019-04-26T02:49:30.720Z,22.90
2019-04-26T02:52:25.489Z,22.90
2019-04-26T02:55:46.923Z,22.90
2019-04-26T02:58:41.300Z,22.90
2019-04-26T03:01:29.350Z,22.90
2019-04-26T03:04:16.873Z,22.90
2019-04-26T03:07:17.189Z,22.90
2019-04-26T03:10:04.267Z,22.90
2019-04-26T03:12:53.968Z,22.90
2019-04-26T03:16:04.197Z,22.90
2019-04-26T03:19:00.079Z,22.90
2019-04-26T03:21:57.242Z,22.90
2019-04-26T03:25:00.123Z,22.90
2019-04-26T03:27:59.968Z,22.90
2019-04-26T03:31:01.730Z,22.90
2019-04-26T03:34:16.486Z,22.90
2019-04-26T03:37:27.311Z,22.90
2019-04-26T03:40:37.890Z,22.90
2019-04-26T03:43:45.607Z,22.90
2019-04-26T03:46:45.550Z,22.90
2019-04-26T03:49:49.147Z,22.90
2019-04-26T03:53:18.127Z,22.90
2019-04-26T03:56:17.101Z,22.90
2019-04-26T03:59:32.587Z,22.90
2019-04-26T04:02:39.257Z,22.90
2019-04-26T04:05:40.234Z,22.90
2019-04-26T04:08:38.491Z,22.90
2019-04-26T04:11:31.215Z,22.90
2019-04-26T04:14:45.094Z,22.90
2019-04-26T04:17:48.251Z,22.90
2019-04-26T04:21:25.121Z,23.00
2019-04-26T04:24:27.190Z,23.00
2019-04-26T04:27:47.279Z,23.00
2019-04-26T04:30:51.090Z,23.10
2019-04-26T04:33:47.844Z,23.10
2019-04-26T04:36:45.892Z,23.20
2019-04-26T04:40:21.733Z,23.30
2019-04-26T04:43:41.861Z,23.40
2019-04-26T04:47:00.702Z,23.40
2019-04-26T04:49:58.312Z,23.50
2019-04-26T04:53:17.425Z,23.50
2019-04-26T04:56:33.272Z,23.60
2019-04-26T04:59:29.520Z,23.70
2019-04-26T05:02:44.816Z,23.80
2019-04-26T05:06:10.171Z,23.90
2019-04-26T05:09:11.072Z,24.00
2019-04-26T05:12:08.487Z,24.00
2019-04-26T05:15:29.536Z,24.10
2019-04-26T05:19:02.099Z,24.10
2019-04-26T05:22:03.111Z,24.20
2019-04-26T05:25:49.350Z,24.30
2019-04-26T05:29:03.195Z,24.40
2019-04-26T05:32:08.369Z,24.50
2019-04-26T05:35:05.820Z,24.60
2019-04-26T05:38:17.931Z,24.70
2019-04-26T05:41:28.120Z,24.70
2019-04-26T05:44:32.964Z,24.80
2019-04-26T05:47:33.223Z,24.80
2019-04-26T05:51:05.813Z,24.80
2019-04-26T05:54:29.615Z,24.80
2019-04-26T05:57:54.764Z,24.90
2019-04-26T06:01:21.784Z,24.90
2019-04-26T06:04:32.932Z,24.90
2019-04-26T06:07:34.564Z,24.90
2019-04-26T06:10:49.929Z,24.90
2019-04-26T06:14:06.818Z,24.90
2019-04-26T06:17:34.963Z,24.90
2019-04-26T06:20:44.244Z,24.90
2019-04-26T06:24:11.060Z,24.90
2019-04-26T06:27:56.772Z,24.90
2019-04-26T06:30:50.159Z,24.90
2019-04-26T06:34:11.839Z,25.00
2019-04-26T06:37:15.640Z,25.00
2019-04-26T06:40:09.757Z,25.00
2019-04-26T06:43:22.105Z,25.10
2019-04-26T06:46:51.834Z,25.20
2019-04-26T06:50:15.104Z,25.30
2019-04-26T06:53:16.288Z,25.50
2019-04-26T06:56:38.432Z,25.60
2019-04-26T06:59:36.613Z,25.60
2019-04-26T07:02:30.587Z,25.70
2019-04-26T07:05:26.209Z,25.80
2019-04-26T07:08:56.737Z,26.00
2019-04-26T07:12:14.704Z,26.10
2019-04-26T07:15:28.839Z,26.20
2019-04-26T07:18:44.040Z,26.30
2019-04-26T07:21:46.781Z,26.40
2019-04-26T07:25:17.692Z,26.70
2019-04-26T07:28:28.568Z,26.80
2019-04-26T07:31:36.032Z,27.00
2019-04-26T07:34:49.943Z,27.10
2019-04-26T07:38:06.900Z,27.20
2019-04-26T07:41:41.199Z,27.20
2019-04-26T07:45:07.493Z,27.20
2019-04-26T07:48:42.139Z,27.10
2019-04-26T07:52:02.944Z,27.00
2019-04-26T07:55:27.379Z,26.90
2019-04-26T07:58:49.987Z,26.70
2019-04-26T08:02:18.500Z,26.70
2019-04-26T08:05:17.092Z,26.60
2019-04-26T08:08:06.963Z,26.60
2019-04-26T08:11:10.742Z,26.70
2019-04-26T08:14:08.464Z,26.70
2019-04-26T08:17:10.916Z,26.80
2019-04-26T08:20:15.996Z,26.90
2019-04-26T08:23:09.039Z,27.00
2019-04-26T08:26:00.307Z,27.10
2019-04-26T08:28:49.948Z,27.10
2019-04-26T08:31:39.807Z,27.30
2019-04-26T08:34:33.659Z,27.40
2019-04-26T08:37:32.291Z,27.50
2019-04-26T08:40:30.104Z,27.60
2019-04-26T08:43:49.779Z,27.60
2019-04-26T08:46:57.019Z,27.70
2019-04-26T08:50:13.680Z,27.70
2019-04-26T08:53:03.171Z,27.70
2019-04-26T08:55:53.227Z,27.70
2019-04-26T08:58:43.340Z,27.70
2019-04-26T09:01:38.417Z,27.70
2019-04-26T09:04:35.491Z,27.60
2019-04-26T09:07:28.058Z,27.60
2019-04-26T09:10:16.899Z,27.60
2019-04-26T09:13:06.183Z,27.50
2019-04-26T09:16:14.626Z,27.50
2019-04-26T09:19:00.672Z,27.50
2019-04-26T09:21:53.720Z,27.50
2019-04-26T09:24:59.379Z,27.50
2019-04-26T09:27:52.358Z,27.50
2019-04-26T09:30:47.658Z,27.50
2019-04-26T09:33:45.522Z,27.50
2019-04-26T09:36:32.044Z,27.40
2019-04-26T09:39:19.911Z,27.40
2019-04-26T09:42:12.905Z,27.40
2019-04-26T09:45:07.543Z,27.30
2019-04-26T09:47:59.300Z,27.30
2019-04-26T09:50:48.015Z,27.20
2019-04-26T09:53:34.048Z,27.10
2019-04-26T09:56:20.511Z,27.10
2019-04-26T09:59:06.902Z,27.10
2019-04-26T10:01:55.471Z,27.00
2019-04-26T10:04:42.360Z,27.00
2019-04-26T10:07:28.300Z,27.00
2019-04-26T10:10:22.782Z,27.00
2019-04-26T10:13:17.155Z,26.90
2019-04-26T10:16:15.435Z,26.90
2019-04-26T10:19:08.293Z,26.80
2019-04-26T10:21:54.595Z,26.80
2019-04-26T10:24:40.997Z,26.80
2019-04-26T10:27:27.539Z,26.70
2019-04-26T10:30:15.841Z,26.70
2019-04-26T10:33:03.435Z,26.60
2019-04-26T10:35:52.619Z,26.50
2019-04-26T10:38:37.483Z,26.50
2019-04-26T10:41:24.104Z,26.40
2019-04-26T10:44:10.429Z,26.40
2019-04-26T10:46:59.868Z,26.30
2019-04-26T10:49:46.423Z,26.30
2019-04-26T10:52:38.675Z,26.20
2019-04-26T10:55:46.421Z,26.20
2019-04-26T10:58:46.188Z,26.10
2019-04-26T11:01:32.332Z,26.10
2019-04-26T11:04:18.751Z,26.10
2019-04-26T11:07:06.139Z,26.00
2019-04-26T11:09:54.801Z,26.00
2019-04-26T11:12:43.407Z,25.90
2019-04-26T11:15:32.665Z,25.90
2019-04-26T11:18:19.880Z,25.80
2019-04-26T11:21:05.780Z,25.80
2019-04-26T11:23:52.039Z,25.80
2019-04-26T11:26:37.876Z,25.80
2019-04-26T11:29:24.956Z,25.70
2019-04-26T11:32:11.952Z,25.70
2019-04-26T11:34:58.762Z,25.70
2019-04-26T11:37:46.458Z,25.70
2019-04-26T11:40:33.027Z,25.70
2019-04-26T11:43:19.542Z,25.60
2019-04-26T11:46:06.913Z,25.60
2019-04-26T11:48:58.845Z,25.60
2019-04-26T11:51:41.035Z,25.60
2019-04-26T11:54:27.563Z,25.60
2019-04-26T11:57:13.877Z,25.50
2019-04-26T12:00:01.334Z,25.50
2019-04-26T12:02:50.752Z,25.50
2019-04-26T12:05:44.412Z,25.50
2019-04-26T12:08:52.852Z,25.50
2019-04-26T12:11:49.037Z,25.50
2019-04-26T12:14:29.555Z,25.50
2019-04-26T12:17:15.813Z,25.50
2019-04-26T12:20:02.083Z,25.50
2019-04-26T12:22:49.087Z,25.50
2019-04-26T12:25:38.900Z,25.50
2019-04-26T12:28:23.395Z,25.50
2019-04-26T12:31:11.140Z,25.50
2019-04-26T12:33:57.515Z,25.50
2019-04-26T12:36:43.858Z,25.50
2019-04-26T12:39:32.361Z,25.50
2019-04-26T12:42:19.455Z,25.50
2019-04-26T12:45:27.388Z,25.50
2019-04-26T12:48:15.811Z,25.50
2019-04-26T12:51:03.335Z,25.40
2019-04-26T12:53:49.311Z,25.50
2019-04-26T12:56:35.755Z,25.40
2019-04-26T12:59:22.399Z,25.40
2019-04-26T13:02:10.389Z,25.40
2019-04-26T13:04:56.444Z,25.40
2019-04-26T13:07:44.769Z,25.40
2019-04-26T13:10:53.344Z,25.50
2019-04-26T13:13:45.565Z,25.40
2019-04-26T13:16:38.991Z,25.40
2019-04-26T13:19:25.419Z,25.50
2019-04-26T13:22:12.518Z,25.50
2019-04-26T13:24:59.704Z,25.50
2019-04-26T13:27:46.646Z,25.50
2019-04-26T13:30:33.451Z,25.50
2019-04-26T13:33:23.275Z,25.50
2019-04-26T13:36:08.929Z,25.50
2019-04-26T13:38:55.271Z,25.50
2019-04-26T13:41:41.927Z,25.50
2019-04-26T13:44:46.233Z,25.50
2019-04-26T13:47:52.529Z,25.50
2019-04-26T13:50:42.516Z,25.50
2019-04-26T13:53:28.708Z,25.50
2019-04-26T13:56:14.449Z,25.50
2019-04-26T13:59:00.863Z,25.50
2019-04-26T14:01:47.351Z,25.50
2019-04-26T14:04:37.021Z,25.50
2019-04-26T14:07:24.443Z,25.50
2019-04-26T14:10:09.604Z,25.50
2019-04-26T14:12:55.793Z,25.50
2019-04-26T14:15:44.023Z,25.50
2019-04-26T14:18:29.840Z,25.50
2019-04-26T14:21:16.473Z,25.50
2019-04-26T14:24:31.548Z,25.50
2019-04-26T14:27:25.015Z,25.50
2019-04-26T14:30:11.147Z,25.50
2019-04-26T14:32:58.892Z,25.50
2019-04-26T14:35:46.253Z,25.50
2019-04-26T14:38:39.336Z,25.50
2019-04-26T14:41:22.759Z,25.50
2019-04-26T14:44:15.887Z,25.40
2019-04-26T14:46:58.002Z,25.50
2019-04-26T14:49:44.312Z,25.50
2019-04-26T14:52:30.447Z,25.50
2019-04-26T14:55:21.219Z,25.50
2019-04-26T14:58:04.783Z,25.40
2019-04-26T15:00:55.848Z,25.40
2019-04-26T15:03:51.372Z,25.40
2019-04-26T15:06:42.341Z,25.40
2019-04-26T15:09:33.358Z,25.40
2019-04-26T15:12:16.549Z,25.40
2019-04-26T15:15:04.319Z,25.40
2019-04-26T15:17:55.079Z,25.40
2019-04-26T15:20:40.587Z,25.40
2019-04-26T15:23:27.030Z,25.40
2019-04-26T15:26:13.298Z,25.40
2019-04-26T15:28:59.912Z,25.30
2019-04-26T15:31:46.111Z,25.30
2019-04-26T15:34:32.032Z,25.30
2019-04-26T15:37:20.236Z,25.30
2019-04-26T15:40:31.873Z,25.30
2019-04-26T15:43:32.644Z,25.30
2019-04-26T15:46:36.379Z,25.30
2019-04-26T15:49:45.015Z,25.30
2019-04-26T15:52:34.122Z,25.30
2019-04-26T15:55:19.346Z,25.30
2019-04-26T15:58:08.480Z,25.30
2019-04-26T16:00:54.256Z,25.20
2019-04-26T16:03:40.947Z,25.20
2019-04-26T16:06:28.304Z,25.20
2019-04-26T16:09:19.860Z,25.20
2019-04-26T16:12:03.638Z,25.20
2019-04-26T16:14:51.992Z,25.20
2019-04-26T16:17:40.248Z,25.20
2019-04-26T16:20:27.351Z,25.20
2019-04-26T16:23:13.563Z,25.10
2019-04-26T16:25:59.850Z,25.10
2019-04-26T16:29:18.171Z,25.10
2019-04-26T16:32:23.034Z,25.10
2019-04-26T16:35:09.500Z,25.10
2019-04-26T16:38:00.170Z,25.00
2019-04-26T16:40:28.720Z,25.00
2019-04-26T16:42:59.537Z,25.00
2019-04-26T16:45:26.347Z,25.00
2019-04-26T16:47:53.847Z,25.00
2019-04-26T16:50:27.996Z,25.00
2019-04-26T16:52:50.730Z,25.00
2019-04-26T16:55:47.917Z,25.00
2019-04-26T16:58:06.753Z,25.00
2019-04-26T17:00:59.472Z,25.00
2019-04-26T17:03:07.948Z,25.00
2019-04-26T17:08:05.037Z,24.90
2019-04-26T17:09:41.877Z,25.00
2019-04-26T17:10:56.328Z,24.90
2019-04-26T17:13:24.014Z,24.90
2019-04-26T17:15:52.013Z,24.90
2019-04-26T17:18:23.901Z,24.90
2019-04-26T17:20:50.048Z,24.80
2019-04-26T17:23:36.091Z,24.70
2019-04-26T17:26:36.439Z,24.70
2019-04-26T17:29:23.635Z,24.50
2019-04-26T17:32:13.939Z,24.40
2019-04-26T17:34:59.487Z,24.40
2019-04-26T17:37:45.279Z,24.30
2019-04-26T17:40:36.679Z,24.30
2019-04-26T17:43:21.105Z,24.10
2019-04-26T17:46:07.889Z,24.10
2019-04-26T17:48:54.213Z,24.00
2019-04-26T17:51:44.183Z,24.00
2019-04-26T17:54:45.614Z,23.90
2019-04-26T17:56:58.241Z,23.80
2019-04-26T17:59:33.325Z,23.90
2019-04-26T18:02:00.744Z,23.90
2019-04-26T18:04:34.522Z,23.90
2019-04-26T18:07:03.657Z,24.00
2019-04-26T18:09:44.018Z,23.90
2019-04-26T18:12:09.839Z,23.90
2019-04-26T18:14:56.086Z,23.90
2019-04-26T18:18:09.742Z,23.80
2019-04-26T18:21:20.264Z,23.80
2019-04-26T18:24:10.788Z,23.80
2019-04-26T18:27:04.497Z,23.80
2019-04-26T18:29:53.164Z,23.70
2019-04-26T18:32:47.551Z,23.70
2019-04-26T18:35:31.200Z,23.70
2019-04-26T18:38:17.587Z,23.60
2019-04-26T18:41:03.777Z,23.60
2019-04-26T18:43:54.046Z,23.60
2019-04-26T18:46:47.095Z,23.50
2019-04-26T18:49:32.997Z,23.50
2019-04-26T18:52:19.377Z,23.50
2019-04-26T18:55:21.575Z,23.50
2019-04-26T18:58:08.492Z,23.50
2019-04-26T19:00:57.393Z,23.50
2019-04-26T19:03:44.917Z,23.50
2019-04-26T19:06:33.550Z,23.50
2019-04-26T19:09:21.507Z,23.50
2019-04-26T19:12:09.935Z,23.50
2019-04-26T19:15:11.541Z,23.60
2019-04-26T19:18:17.968Z,23.60
2019-04-26T19:21:14.024Z,23.60
2019-04-26T19:24:07.198Z,23.60
2019-04-26T19:26:50.010Z,23.60
2019-04-26T19:29:37.522Z,23.60
2019-04-26T19:32:23.750Z,23.60
2019-04-26T19:35:13.864Z,23.60
2019-04-26T19:37:58.479Z,23.60
2019-04-26T19:40:47.811Z,23.60
2019-04-26T19:43:35.212Z,23.60
2019-04-26T19:46:37.328Z,23.60
2019-04-26T19:49:41.949Z,23.50
2019-04-26T19:52:39.501Z,23.50
2019-04-26T19:55:32.915Z,23.50
2019-04-26T19:58:22.826Z,23.50
2019-04-26T20:01:09.501Z,23.50
2019-04-26T20:03:55.719Z,23.50
2019-04-26T20:06:43.107Z,23.50
2019-04-26T20:09:29.661Z,23.50
2019-04-26T20:12:15.884Z,23.50
2019-04-26T20:15:04.314Z,23.50
2019-04-26T20:17:59.275Z,23.50
2019-04-26T20:20:41.447Z,23.50
2019-04-26T20:23:27.626Z,23.50
2019-04-26T20:26:14.028Z,23.50
2019-04-26T20:29:00.387Z,23.50
2019-04-26T20:32:02.171Z,23.50
2019-04-26T20:35:15.282Z,23.50
2019-04-26T20:38:04.708Z,23.50
2019-04-26T20:40:49.539Z,23.50
2019-04-26T20:43:42.156Z,23.50
2019-04-26T20:46:25.088Z,23.50
2019-04-26T20:49:12.323Z,23.50
2019-04-26T20:51:59.504Z,23.50
2019-04-26T20:54:46.576Z,23.50
2019-04-26T20:57:34.570Z,23.50
2019-04-26T21:00:22.513Z,23.50
2019-04-26T21:03:21.174Z,23.50
2019-04-26T21:05:59.142Z,23.50
2019-04-26T21:08:45.813Z,23.50
2019-04-26T21:11:37.280Z,23.40
2019-04-26T21:14:21.397Z,23.40
2019-04-26T21:17:08.021Z,23.40
2019-04-26T21:19:58.433Z,23.40
2019-04-26T21:22:43.512Z,23.40
2019-04-26T21:25:37.271Z,23.40
2019-04-26T21:28:48.462Z,23.40
2019-04-26T21:31:47.185Z,23.30
2019-04-26T21:34:35.670Z,23.30
2019-04-26T21:37:31.004Z,23.30
2019-04-26T21:40:37.617Z,23.30
2019-04-26T21:43:24.849Z,23.30
2019-04-26T21:46:18.689Z,23.20
2019-04-26T21:48:59.488Z,23.20
2019-04-26T21:51:51.158Z,23.20
2019-04-26T21:54:34.463Z,23.20
2019-04-26T21:57:25.024Z,23.20
2019-04-26T22:00:33.346Z,23.20
2019-04-26T22:03:22.356Z,23.20
2019-04-26T22:06:08.679Z,23.20
2019-04-26T22:09:21.328Z,23.20
2019-04-26T22:12:10.944Z,23.20
2019-04-26T22:15:35.813Z,23.20
2019-04-26T22:18:25.467Z,23.10
2019-04-26T22:21:34.023Z,23.10
2019-04-26T22:24:28.876Z,23.10
2019-04-26T22:27:17.475Z,23.10
2019-04-26T22:30:09.123Z,23.10
2019-04-26T22:32:58.410Z,23.10
2019-04-26T22:35:43.274Z,23.10
2019-04-26T22:38:29.656Z,23.10
2019-04-26T22:41:15.877Z,23.00
2019-04-26T22:44:13.979Z,23.00
2019-04-26T22:47:33.885Z,23.00
2019-04-26T22:50:24.990Z,23.00
2019-04-26T22:53:11.930Z,23.00
2019-04-26T22:56:01.411Z,23.00
2019-04-26T22:58:46.487Z,23.00
2019-04-26T23:01:35.025Z,23.00
2019-04-26T23:04:25.463Z,23.00
2019-04-26T23:07:13.581Z,22.90
2019-04-26T23:09:59.859Z,22.90
2019-04-26T23:13:07.574Z,23.00
2019-04-26T23:16:14.341Z,23.00
2019-04-26T23:19:15.213Z,23.00
2019-04-26T23:22:04.003Z,23.00
2019-04-26T23:24:54.471Z,23.00
2019-04-26T23:27:39.539Z,23.00
2019-04-26T23:30:27.683Z,23.00
2019-04-26T23:33:15.136Z,23.00
2019-04-26T23:36:03.274Z,23.00
2019-04-26T23:38:49.475Z,23.00
2019-04-26T23:41:37.551Z,23.00
2019-04-26T23:44:24.547Z,23.00
2019-04-26T23:47:20.647Z,23.00
2019-04-26T23:49:58.939Z,23.10
2019-04-26T23:52:49.282Z,23.10
2019-04-26T23:55:33.794Z,23.10
2019-04-26T23:58:21.062Z,23.10
